Time;durP1;ratioP1;P1;durP2;ratioP2;P2;SDS_P1;SDS_P2;PMS_P1;PMS_P2;Temp;Humidity;BMP_temperature;BMP_pressure;BME280_temperature;BME280_humidity;BME280_pressure;Samples;Min_cycle;Max_cycle;Signal;HPM_P1;HPM_P2
2023/12/09 00:01:44;;;;;;;34.08;25.98;;;5.70;99.90;;;;;;4958395;29;20224;-84
2023/12/09 00:04:11;;;;;;;36.70;26.20;;;5.70;99.90;;;;;;4957421;29;20232;-84
2023/12/09 00:06:38;;;;;;;33.72;24.67;;;5.70;99.90;;;;;;4958195;29;20235;-85
2023/12/09 00:09:05;;;;;;;34.60;27.30;;;5.80;99.90;;;;;;4958116;29;20295;-83
2023/12/09 00:11:33;;;;;;;33.17;25.08;;;5.80;99.90;;;;;;4957135;29;20311;-83
2023/12/09 00:14:03;;;;;;;36.92;25.70;;;5.80;99.90;;;;;;4957854;29;20227;-82
2023/12/09 00:16:30;;;;;;;34.97;25.63;;;5.80;99.90;;;;;;4956650;28;20220;-83
2023/12/09 00:18:58;;;;;;;37.15;26.58;;;5.80;99.90;;;;;;4957974;29;20666;-83
2023/12/09 00:21:25;;;;;;;33.90;26.50;;;5.80;99.90;;;;;;4956364;29;20232;-76
2023/12/09 00:23:52;;;;;;;32.33;26.38;;;5.80;99.90;;;;;;4957320;29;20228;-77
2023/12/09 00:26:19;;;;;;;36.90;25.70;;;5.80;99.90;;;;;;4957139;29;20580;-76
2023/12/09 00:28:46;;;;;;;32.03;23.98;;;5.80;99.90;;;;;;4957120;29;20224;-75
2023/12/09 00:31:15;;;;;;;35.00;26.45;;;5.80;99.90;;;;;;4956845;28;20224;-75
2023/12/09 00:33:42;;;;;;;34.55;26.23;;;5.80;99.90;;;;;;4957791;29;20243;-83
2023/12/09 00:36:10;;;;;;;32.88;23.83;;;5.80;99.90;;;;;;4958502;29;20240;-75
2023/12/09 00:38:37;;;;;;;29.52;22.45;;;5.80;99.90;;;;;;4957261;29;20219;-75
2023/12/09 00:41:05;;;;;;;30.25;23.05;;;5.80;99.90;;;;;;4959993;29;20231;-83
2023/12/09 00:43:33;;;;;;;31.42;23.48;;;5.80;99.90;;;;;;4964687;29;20235;-83
2023/12/09 00:46:00;;;;;;;33.50;23.52;;;5.90;99.90;;;;;;4960229;29;20220;-82
2023/12/09 00:48:29;;;;;;;32.20;23.92;;;5.90;99.90;;;;;;4957608;29;20228;-75
2023/12/09 00:50:56;;;;;;;28.55;22.48;;;5.90;99.90;;;;;;4957872;29;20228;-83
2023/12/09 00:53:23;;;;;;;36.20;24.65;;;5.90;99.90;;;;;;4957779;29;20232;-82
2023/12/09 00:55:50;;;;;;;33.33;24.80;;;5.90;99.90;;;;;;4957813;29;20625;-83
2023/12/09 00:58:17;;;;;;;30.98;23.30;;;5.90;99.90;;;;;;4957426;28;20712;-82
2023/12/09 01:00:44;;;;;;;35.25;25.20;;;5.90;99.90;;;;;;4957403;29;20291;-83
2023/12/09 01:03:11;;;;;;;28.60;22.65;;;5.90;99.90;;;;;;4956654;29;20545;-75
2023/12/09 01:05:39;;;;;;;35.35;23.08;;;5.90;99.90;;;;;;4957203;29;20228;-76
2023/12/09 01:08:06;;;;;;;32.17;24.02;;;5.90;99.90;;;;;;4956966;29;20224;-83
2023/12/09 01:10:33;;;;;;;30.77;22.75;;;6.00;99.90;;;;;;4956123;29;20682;-76
2023/12/09 01:13:00;;;;;;;31.83;24.58;;;5.90;99.90;;;;;;4956219;29;20224;-83
2023/12/09 01:15:27;;;;;;;32.63;24.67;;;6.00;99.90;;;;;;4955551;29;20220;-82
2023/12/09 01:17:54;;;;;;;36.60;24.55;;;6.00;99.90;;;;;;4956491;29;20224;-83
2023/12/09 01:20:21;;;;;;;31.92;22.52;;;5.90;99.90;;;;;;4956138;29;20241;-82
2023/12/09 01:22:49;;;;;;;32.45;23.27;;;5.90;99.90;;;;;;4956293;29;20239;-83
2023/12/09 01:25:16;;;;;;;31.42;22.48;;;5.90;99.90;;;;;;4955919;29;20232;-76
2023/12/09 01:27:43;;;;;;;32.28;23.85;;;5.90;99.90;;;;;;4955649;28;20279;-76
2023/12/09 01:30:11;;;;;;;31.95;25.77;;;5.90;99.90;;;;;;4956287;29;20228;-83
2023/12/09 01:32:38;;;;;;;32.28;22.42;;;5.90;99.90;;;;;;4955652;29;20279;-75
2023/12/09 01:35:06;;;;;;;30.85;22.90;;;5.90;99.90;;;;;;4956053;29;20231;-76
2023/12/09 01:37:33;;;;;;;30.45;22.73;;;5.90;99.90;;;;;;4944660;28;20216;-82
2023/12/09 01:40:02;;;;;;;31.95;21.50;;;5.90;99.90;;;;;;4956358;28;20236;-83
2023/12/09 01:42:29;;;;;;;30.50;24.20;;;5.90;99.90;;;;;;4955657;28;20236;-83
2023/12/09 01:44:56;;;;;;;26.70;19.23;;;6.00;99.90;;;;;;4956128;28;20228;-75
2023/12/09 01:47:24;;;;;;;28.88;23.17;;;6.00;99.90;;;;;;4954320;28;20583;-83
2023/12/09 01:49:53;;;;;;;28.50;21.77;;;6.00;99.90;;;;;;4955119;28;20686;-75
2023/12/09 01:52:21;;;;;;;29.65;21.33;;;6.00;99.90;;;;;;4955807;28;20232;-76
2023/12/09 01:54:49;;;;;;;33.22;22.88;;;6.00;99.90;;;;;;4956046;28;20248;-84
2023/12/09 01:57:20;;;;;;;34.92;23.80;;;6.10;99.90;;;;;;4955521;28;20235;-83
2023/12/09 01:59:47;;;;;;;26.90;21.33;;;6.10;99.90;;;;;;4946199;29;20251;-75
2023/12/09 02:02:14;;;;;;;29.50;22.30;;;6.10;99.90;;;;;;4954168;29;20231;-83
2023/12/09 02:04:42;;;;;;;30.65;25.08;;;6.10;99.90;;;;;;4954346;29;20311;-82
2023/12/09 02:07:11;;;;;;;33.08;24.02;;;6.10;99.90;;;;;;4956146;29;20314;-76
2023/12/09 02:09:42;;;;;;;30.98;23.40;;;6.10;99.90;;;;;;4955528;29;20311;-75
2023/12/09 02:12:16;;;;;;;36.45;22.08;;;6.10;99.90;;;;;;4956153;29;20753;-82
2023/12/09 02:14:51;;;;;;;31.10;22.77;;;6.10;99.90;;;;;;4953763;29;20242;-75
2023/12/09 02:17:23;;;;;;;28.92;21.45;;;6.10;99.90;;;;;;4954531;29;20746;-75
2023/12/09 02:19:51;;;;;;;29.38;22.90;;;6.10;99.90;;;;;;4953849;29;20681;-82
2023/12/09 02:22:18;;;;;;;31.98;22.83;;;6.20;99.90;;;;;;4954818;29;20310;-83
2023/12/09 02:24:48;;;;;;;31.73;22.48;;;6.20;99.90;;;;;;4954303;29;20238;-75
2023/12/09 02:27:22;;;;;;;32.97;23.17;;;6.10;99.90;;;;;;4955518;29;20224;-76
2023/12/09 02:29:54;;;;;;;33.35;25.08;;;6.00;99.90;;;;;;4955410;29;20600;-82
2023/12/09 02:32:24;;;;;;;32.00;22.90;;;6.00;99.90;;;;;;4950221;29;20417;-75
2023/12/09 02:34:55;;;;;;;31.58;24.92;;;6.00;99.90;;;;;;4954599;29;20238;-75
2023/12/09 02:37:22;;;;;;;27.60;23.20;;;6.00;99.90;;;;;;4945842;28;20637;-76
2023/12/09 02:40:09;;;;;;;28.55;22.15;;;6.10;99.90;;;;;;4956956;28;20235;-84
2023/12/09 02:42:38;;;;;;;31.98;21.80;;;6.10;99.90;;;;;;4957544;28;20246;-76
2023/12/09 02:45:07;;;;;;;31.98;22.83;;;6.10;99.90;;;;;;4959670;28;20234;-82
2023/12/09 02:47:37;;;;;;;30.38;22.35;;;6.00;99.90;;;;;;4943506;28;20284;-82
2023/12/09 02:50:04;;;;;;;32.97;23.50;;;6.10;99.90;;;;;;4940161;29;20232;-76
2023/12/09 02:52:33;;;;;;;30.55;22.58;;;6.10;99.90;;;;;;4939857;29;20232;-82
2023/12/09 02:55:03;;;;;;;31.13;23.20;;;6.10;99.90;;;;;;4939929;29;20271;-76
2023/12/09 02:57:34;;;;;;;32.47;22.80;;;6.10;99.90;;;;;;4940175;29;20229;-75
2023/12/09 03:00:02;;;;;;;34.28;24.35;;;6.10;99.90;;;;;;4950623;28;20239;-85
2023/12/09 03:02:30;;;;;;;32.65;24.98;;;6.10;99.90;;;;;;4959086;28;20235;-75
2023/12/09 03:04:59;;;;;;;35.97;27.45;;;6.10;99.90;;;;;;4958087;28;20231;-76
2023/12/09 03:07:26;;;;;;;32.72;22.75;;;6.10;99.90;;;;;;4958777;28;20674;-83
2023/12/09 03:09:54;;;;;;;35.20;25.95;;;6.10;99.90;;;;;;4958617;28;20310;-83
2023/12/09 03:12:22;;;;;;;35.45;23.70;;;6.10;99.90;;;;;;4958733;28;20247;-82
2023/12/09 03:14:50;;;;;;;35.83;23.98;;;6.10;99.90;;;;;;4959168;28;20317;-76
2023/12/09 03:17:17;;;;;;;41.33;26.02;;;6.10;99.90;;;;;;4958910;28;20315;-83
2023/12/09 03:19:46;;;;;;;35.42;24.45;;;6.10;99.90;;;;;;4948287;28;20243;-82
2023/12/09 03:22:13;;;;;;;35.30;23.45;;;6.20;99.90;;;;;;4957086;28;20658;-82
2023/12/09 03:24:44;;;;;;;30.35;24.45;;;6.10;99.90;;;;;;4957509;28;20286;-76
2023/12/09 03:27:11;;;;;;;34.92;23.42;;;6.10;99.90;;;;;;4954752;28;20287;-76
2023/12/09 03:29:40;;;;;;;37.67;24.35;;;6.10;99.90;;;;;;4960445;28;20223;-76
2023/12/09 03:32:07;;;;;;;36.55;26.02;;;6.10;99.90;;;;;;4976864;28;20231;-75
2023/12/09 03:34:34;;;;;;;38.80;23.75;;;6.10;99.90;;;;;;4976709;28;20219;-82
2023/12/09 03:37:01;;;;;;;37.25;24.33;;;6.10;99.90;;;;;;4953269;28;20246;-76
2023/12/09 03:39:31;;;;;;;38.40;25.73;;;6.00;99.90;;;;;;4957891;28;20220;-76
2023/12/09 03:41:58;;;;;;;34.00;23.85;;;6.00;99.90;;;;;;4957743;28;20232;-82
2023/12/09 03:44:25;;;;;;;38.35;25.90;;;6.00;99.90;;;;;;4958049;28;20282;-76
2023/12/09 03:46:54;;;;;;;42.35;26.73;;;6.10;99.90;;;;;;4958285;28;20571;-83
2023/12/09 03:49:21;;;;;;;35.85;26.33;;;6.10;99.90;;;;;;4957886;28;20290;-76
2023/12/09 03:51:49;;;;;;;44.25;27.52;;;6.10;99.90;;;;;;4958582;28;20345;-83
2023/12/09 03:54:18;;;;;;;36.08;23.90;;;6.10;99.90;;;;;;4956941;28;20622;-82
2023/12/09 03:56:45;;;;;;;40.75;25.92;;;6.00;99.90;;;;;;4957277;28;20583;-82
2023/12/09 03:59:13;;;;;;;47.75;28.50;;;6.00;99.90;;;;;;4957333;28;20224;-82
2023/12/09 04:01:51;;;;;;;40.55;24.30;;;6.00;99.90;;;;;;4946675;29;20231;-83
2023/12/09 04:04:21;;;;;;;40.63;24.98;;;6.10;99.90;;;;;;4956246;29;20227;-83
2023/12/09 04:06:49;;;;;;;41.60;25.63;;;6.00;99.90;;;;;;4957871;29;20224;-83
2023/12/09 04:09:18;;;;;;;40.80;27.65;;;6.00;99.90;;;;;;4957244;29;20287;-76
2023/12/09 04:11:45;;;;;;;44.83;26.90;;;5.90;99.90;;;;;;4957888;29;20620;-82
2023/12/09 04:14:12;;;;;;;47.15;26.95;;;6.00;99.90;;;;;;4957424;29;20232;-76
2023/12/09 04:16:40;;;;;;;45.35;28.23;;;6.00;99.90;;;;;;4955986;29;20223;-82
2023/12/09 04:19:07;;;;;;;46.63;28.13;;;5.90;99.90;;;;;;4957232;29;20569;-82
2023/12/09 04:21:36;;;;;;;42.17;27.50;;;5.90;99.90;;;;;;4957223;29;20232;-84
2023/12/09 04:24:04;;;;;;;37.67;27.33;;;6.00;99.90;;;;;;4942409;29;20247;-83
2023/12/09 04:26:31;;;;;;;48.72;30.50;;;6.00;99.90;;;;;;4937568;29;20297;-76
2023/12/09 04:28:58;;;;;;;45.60;28.23;;;6.00;99.90;;;;;;4947498;29;20223;-76
2023/12/09 04:31:25;;;;;;;49.30;29.85;;;6.00;99.90;;;;;;4958353;29;20223;-83
2023/12/09 04:33:53;;;;;;;48.45;27.05;;;6.00;99.90;;;;;;4959366;29;20239;-83
2023/12/09 04:36:20;;;;;;;45.15;28.67;;;6.00;99.90;;;;;;4956498;29;20256;-83
2023/12/09 04:38:49;;;;;;;54.55;33.72;;;6.10;99.90;;;;;;4957287;29;20227;-83
2023/12/09 04:41:17;;;;;;;48.67;28.70;;;6.10;99.90;;;;;;4947820;28;20542;-83
2023/12/09 04:43:45;;;;;;;53.78;30.75;;;6.10;99.90;;;;;;4957169;29;20228;-76
2023/12/09 04:46:12;;;;;;;46.42;28.58;;;6.00;99.90;;;;;;4959533;29;20256;-77
2023/12/09 04:48:39;;;;;;;49.10;29.33;;;6.10;99.90;;;;;;4958179;29;20224;-83
2023/12/09 04:51:06;;;;;;;56.33;29.88;;;6.10;99.90;;;;;;4962404;29;20232;-83
2023/12/09 04:53:33;;;;;;;43.85;26.40;;;6.10;99.90;;;;;;4958919;29;20247;-76
2023/12/09 04:56:02;;;;;;;51.70;29.50;;;6.10;99.90;;;;;;4957912;29;20662;-76
2023/12/09 04:58:30;;;;;;;54.90;32.08;;;6.10;99.90;;;;;;4960117;29;20694;-77
2023/12/09 05:00:57;;;;;;;45.65;27.00;;;6.10;99.90;;;;;;4957337;29;20259;-76
2023/12/09 05:03:24;;;;;;;51.10;30.25;;;6.10;99.90;;;;;;4955632;28;20228;-76
2023/12/09 05:05:51;;;;;;;49.95;31.25;;;6.10;99.90;;;;;;4957953;29;20223;-76
2023/12/09 05:08:20;;;;;;;47.70;29.05;;;6.10;99.90;;;;;;4954247;29;20576;-76
2023/12/09 05:10:48;;;;;;;49.78;30.13;;;6.10;99.90;;;;;;4956687;29;20254;-76
2023/12/09 05:13:20;;;;;;;54.10;31.60;;;6.10;99.90;;;;;;4954285;29;20662;-77
2023/12/09 05:15:48;;;;;;;54.70;30.10;;;6.10;99.90;;;;;;4957359;29;20228;-83
2023/12/09 05:18:15;;;;;;;47.25;29.30;;;6.20;99.90;;;;;;4956892;29;20255;-76
2023/12/09 05:20:43;;;;;;;52.97;31.10;;;6.20;99.90;;;;;;4956047;29;20361;-82
2023/12/09 05:23:16;;;;;;;56.35;33.25;;;6.20;99.90;;;;;;4966451;28;20596;-76
2023/12/09 05:25:46;;;;;;;59.47;33.83;;;6.20;99.90;;;;;;4975757;28;20269;-83
2023/12/09 05:28:13;;;;;;;54.53;32.10;;;6.20;99.90;;;;;;4975576;28;20231;-76
2023/12/09 05:30:43;;;;;;;53.47;30.15;;;6.20;99.90;;;;;;4975646;28;20228;-83
2023/12/09 05:33:11;;;;;;;54.45;30.42;;;6.20;99.90;;;;;;4976718;28;20273;-76
2023/12/09 05:35:38;;;;;;;52.67;30.45;;;6.10;99.90;;;;;;4974569;28;20282;-76
2023/12/09 05:38:05;;;;;;;58.53;33.53;;;6.20;99.90;;;;;;4975508;28;20270;-76
2023/12/09 05:40:33;;;;;;;54.20;28.52;;;6.20;99.90;;;;;;4974865;28;20223;-83
2023/12/09 05:43:00;;;;;;;52.08;30.75;;;6.20;99.90;;;;;;4976140;28;20255;-82
2023/12/09 05:45:27;;;;;;;61.05;32.35;;;6.20;99.90;;;;;;4966748;28;20226;-83
2023/12/09 05:47:57;;;;;;;50.03;30.17;;;6.20;99.90;;;;;;4974131;28;20227;-76
2023/12/09 05:50:24;;;;;;;54.25;31.20;;;6.20;99.90;;;;;;4974261;28;20627;-76
2023/12/09 05:52:51;;;;;;;51.58;30.55;;;6.20;99.90;;;;;;4975568;28;20235;-76
2023/12/09 05:55:24;;;;;;;51.85;31.08;;;6.20;99.90;;;;;;4975554;28;20231;-76
2023/12/09 05:57:52;;;;;;;55.13;32.55;;;6.20;99.90;;;;;;4973055;28;20219;-76
2023/12/09 06:00:19;;;;;;;43.90;28.25;;;6.20;99.90;;;;;;4975012;28;20681;-83
2023/12/09 06:02:47;;;;;;;59.08;31.52;;;6.20;99.90;;;;;;4972020;28;20257;-83
2023/12/09 06:05:15;;;;;;;53.38;29.80;;;6.20;99.90;;;;;;4975679;28;20235;-83
2023/12/09 06:07:42;;;;;;;64.25;28.92;;;6.20;99.90;;;;;;4975547;28;20227;-77
2023/12/09 06:10:16;;;;;;;51.83;30.92;;;6.20;99.90;;;;;;4975197;28;20231;-76
2023/12/09 06:12:43;;;;;;;62.05;30.88;;;6.30;99.90;;;;;;4974744;28;20705;-82
2023/12/09 06:15:11;;;;;;;48.22;29.60;;;6.30;99.90;;;;;;4974518;28;20238;-83
2023/12/09 06:17:42;;;;;;;47.05;28.13;;;6.30;99.90;;;;;;4974470;28;20894;-82
2023/12/09 06:20:12;;;;;;;52.17;26.42;;;6.30;99.90;;;;;;4974166;28;20756;-83
2023/12/09 06:22:43;;;;;;;52.85;27.08;;;6.30;99.90;;;;;;4973757;28;20632;-76
2023/12/09 06:25:11;;;;;;;50.30;28.02;;;6.30;99.90;;;;;;4975097;28;20310;-83
2023/12/09 06:27:39;;;;;;;44.67;26.58;;;6.30;99.90;;;;;;4974517;28;20227;-76
2023/12/09 06:30:12;;;;;;;44.28;25.80;;;6.30;99.90;;;;;;4974973;28;20745;-83
2023/12/09 06:32:41;;;;;;;40.47;26.70;;;6.30;99.90;;;;;;4973639;28;20228;-76
2023/12/09 06:35:11;;;;;;;48.05;27.58;;;6.30;99.90;;;;;;4974772;28;20665;-83
2023/12/09 06:37:38;;;;;;;50.78;27.55;;;6.20;99.90;;;;;;4974029;28;20319;-83
2023/12/09 06:40:08;;;;;;;46.50;27.17;;;6.30;99.90;;;;;;4974937;28;20607;-76
2023/12/09 06:42:38;;;;;;;45.17;27.35;;;6.20;99.90;;;;;;4974556;28;20228;-82
2023/12/09 06:45:06;;;;;;;43.42;27.15;;;6.20;99.90;;;;;;4974767;28;20223;-76
2023/12/09 06:47:34;;;;;;;44.72;27.05;;;6.20;99.90;;;;;;4973184;28;20239;-83
2023/12/09 06:50:06;;;;;;;48.85;27.73;;;6.30;99.90;;;;;;4974791;28;20608;-83
2023/12/09 06:52:33;;;;;;;41.53;25.70;;;6.20;99.90;;;;;;4962984;28;20262;-76
2023/12/09 06:55:00;;;;;;;46.10;28.23;;;6.30;99.90;;;;;;4974636;28;20234;-82
2023/12/09 06:57:29;;;;;;;47.92;26.13;;;6.20;99.90;;;;;;4973539;28;20673;-76
2023/12/09 06:59:57;;;;;;;51.85;26.80;;;6.30;99.90;;;;;;4973872;28;20223;-83
2023/12/09 07:02:26;;;;;;;40.85;26.13;;;6.20;99.90;;;;;;4973182;28;20243;-76
2023/12/09 07:04:53;;;;;;;42.35;26.85;;;6.20;99.90;;;;;;4973682;28;20227;-82
2023/12/09 07:07:22;;;;;;;41.42;26.00;;;6.20;99.90;;;;;;4974529;28;20302;-76
2023/12/09 07:09:55;;;;;;;44.67;28.52;;;6.20;99.90;;;;;;4973109;28;20230;-76
2023/12/09 07:12:26;;;;;;;40.17;25.27;;;6.20;99.90;;;;;;4974485;28;20251;-76
2023/12/09 07:15:05;;;;;;;45.83;26.52;;;6.20;99.90;;;;;;4974128;28;20246;-83
2023/12/09 07:17:38;;;;;;;38.50;25.48;;;6.20;99.90;;;;;;4972765;28;20699;-76
2023/12/09 07:20:10;;;;;;;39.00;25.35;;;6.30;99.90;;;;;;4974199;28;20681;-81
2023/12/09 07:22:38;;;;;;;39.78;25.92;;;6.30;99.90;;;;;;4974417;28;20239;-82
2023/12/09 07:25:06;;;;;;;40.00;24.35;;;6.20;99.90;;;;;;4974781;28;20231;-83
2023/12/09 07:27:33;;;;;;;33.40;24.45;;;6.20;99.90;;;;;;4977975;28;20246;-76
2023/12/09 07:30:02;;;;;;;39.72;24.30;;;6.30;99.90;;;;;;4977092;28;20228;-82
2023/12/09 07:32:29;;;;;;;34.83;23.92;;;6.30;99.90;;;;;;4977623;28;20594;-76
2023/12/09 07:34:58;;;;;;;32.92;24.05;;;6.40;99.90;;;;;;4977472;28;20227;-82
2023/12/09 07:37:25;;;;;;;38.70;25.88;;;6.40;99.90;;;;;;4977449;28;20247;-82
2023/12/09 07:39:52;;;;;;;41.00;24.83;;;6.40;99.90;;;;;;4976403;28;20573;-83
2023/12/09 07:42:20;;;;;;;39.05;24.70;;;6.40;99.90;;;;;;4977717;28;20310;-76
2023/12/09 07:44:47;;;;;;;35.30;23.33;;;6.40;99.90;;;;;;4976577;28;20227;-76
2023/12/09 07:47:23;;;;;;;35.70;24.42;;;6.40;99.90;;;;;;4977206;28;20228;-82
2023/12/09 07:49:50;;;;;;;33.63;24.13;;;6.40;99.90;;;;;;4977136;28;20254;-76
2023/12/09 07:52:17;;;;;;;35.22;23.38;;;6.50;99.90;;;;;;4976888;28;20251;-76
2023/12/09 07:54:44;;;;;;;32.85;23.00;;;6.40;99.90;;;;;;4977311;28;20235;-76
2023/12/09 07:57:11;;;;;;;33.60;24.30;;;6.50;99.90;;;;;;4977582;28;20231;-76
2023/12/09 07:59:38;;;;;;;29.90;21.52;;;6.50;99.90;;;;;;4977287;28;20682;-82
2023/12/09 08:02:05;;;;;;;35.58;25.00;;;6.50;99.90;;;;;;4977052;28;20736;-76
2023/12/09 08:04:34;;;;;;;29.08;21.05;;;6.50;99.90;;;;;;4977137;28;20233;-81
2023/12/09 08:07:01;;;;;;;37.58;22.92;;;6.50;99.90;;;;;;4977077;28;20223;-76
2023/12/09 08:09:29;;;;;;;30.88;21.75;;;6.60;99.90;;;;;;4977023;28;20225;-83
2023/12/09 08:12:03;;;;;;;26.00;20.90;;;6.60;99.90;;;;;;4967343;28;20235;-78
2023/12/09 08:14:30;;;;;;;27.27;19.92;;;6.70;99.90;;;;;;4975756;28;20219;-82
2023/12/09 08:16:55;;;;;;;31.77;20.63;;;6.70;99.90;;;;;;4972751;28;20220;-75
2023/12/09 08:19:25;;;;;;;28.60;21.27;;;6.70;99.90;;;;;;4958762;28;20216;-75
2023/12/09 08:21:55;;;;;;;24.83;19.75;;;6.70;99.90;;;;;;4955935;28;20482;-76
2023/12/09 08:24:22;;;;;;;26.77;20.05;;;6.70;99.90;;;;;;4938645;29;20296;-75
2023/12/09 08:26:49;;;;;;;25.63;19.92;;;6.80;99.90;;;;;;4937823;29;20232;-75
2023/12/09 08:29:16;;;;;;;27.83;20.02;;;6.90;99.90;;;;;;4938032;29;20235;-82
2023/12/09 08:31:46;;;;;;;23.65;19.33;;;6.90;99.90;;;;;;4935723;29;20695;-76
2023/12/09 08:34:13;;;;;;;33.53;21.98;;;6.90;99.90;;;;;;4937671;29;20684;-75
2023/12/09 08:36:40;;;;;;;31.20;22.80;;;6.90;99.90;;;;;;4936950;29;20256;-75
2023/12/09 08:39:09;;;;;;;29.27;21.90;;;6.90;99.90;;;;;;4937188;29;20237;-76
2023/12/09 08:41:36;;;;;;;32.20;22.85;;;6.90;99.90;;;;;;4937884;29;20228;-75
2023/12/09 08:44:04;;;;;;;28.35;21.58;;;7.00;99.90;;;;;;4939441;29;20235;-82
2023/12/09 08:46:31;;;;;;;29.40;20.25;;;7.00;99.90;;;;;;4939789;29;20252;-83
2023/12/09 08:49:02;;;;;;;27.48;20.45;;;7.00;99.90;;;;;;4938840;29;20236;-76
2023/12/09 08:51:30;;;;;;;28.20;20.25;;;7.00;99.90;;;;;;4937213;29;20303;-76
2023/12/09 08:53:57;;;;;;;31.15;19.30;;;7.00;99.90;;;;;;4937350;29;20238;-76
2023/12/09 08:56:26;;;;;;;23.45;17.70;;;7.00;99.90;;;;;;4937374;29;20312;-76
2023/12/09 08:58:53;;;;;;;22.60;19.30;;;7.00;99.90;;;;;;4937341;29;20254;-76
2023/12/09 09:01:20;;;;;;;27.05;19.23;;;7.10;99.90;;;;;;4938051;29;20225;-83
2023/12/09 09:03:53;;;;;;;23.92;17.90;;;7.00;99.90;;;;;;4928030;29;20225;-82
2023/12/09 09:06:20;;;;;;;20.45;17.10;;;7.10;99.90;;;;;;4947323;29;20252;-82
2023/12/09 09:08:47;;;;;;;24.13;18.83;;;7.10;99.90;;;;;;4941209;29;20616;-76
2023/12/09 09:11:14;;;;;;;24.20;18.52;;;7.10;99.90;;;;;;4936563;29;20233;-76
2023/12/09 09:13:43;;;;;;;19.92;16.80;;;7.10;99.90;;;;;;4938639;29;20229;-83
2023/12/09 09:16:10;;;;;;;23.58;18.08;;;7.20;99.90;;;;;;4935595;29;20228;-82
2023/12/09 09:18:37;;;;;;;22.08;18.05;;;7.20;99.90;;;;;;4938566;29;20227;-76
2023/12/09 09:21:04;;;;;;;20.30;17.48;;;7.20;99.90;;;;;;4936267;29;20225;-82
2023/12/09 09:23:31;;;;;;;23.05;18.40;;;7.20;99.90;;;;;;4937183;29;20229;-76
2023/12/09 09:25:58;;;;;;;22.30;19.90;;;7.20;99.90;;;;;;4938970;29;20217;-83
2023/12/09 09:28:25;;;;;;;22.33;17.80;;;7.30;99.90;;;;;;4938690;29;20312;-83
2023/12/09 09:30:54;;;;;;;27.75;19.20;;;7.30;99.90;;;;;;4931103;29;20225;-76
2023/12/09 09:33:27;;;;;;;24.73;19.58;;;7.30;99.90;;;;;;4925688;29;20237;-82
2023/12/09 09:35:58;;;;;;;19.60;16.38;;;7.30;99.90;;;;;;4937767;29;20225;-83
2023/12/09 09:38:26;;;;;;;29.08;24.67;;;7.40;99.90;;;;;;4924413;29;20316;-76
2023/12/09 09:40:59;;;;;;;29.58;23.17;;;7.40;99.90;;;;;;4936734;29;20225;-83
2023/12/09 09:43:31;;;;;;;25.90;18.60;;;7.30;99.90;;;;;;4920075;29;20331;-83
2023/12/09 09:46:03;;;;;;;19.42;17.42;;;7.30;99.90;;;;;;4935743;29;20225;-76
2023/12/09 09:48:36;;;;;;;27.83;20.05;;;7.30;99.90;;;;;;4935211;29;20299;-83
2023/12/09 09:51:07;;;;;;;25.77;19.00;;;7.30;99.90;;;;;;4929707;29;20554;-76
2023/12/09 09:53:38;;;;;;;21.17;18.80;;;7.30;99.90;;;;;;4933926;29;20686;-83
2023/12/09 09:56:08;;;;;;;22.55;16.58;;;7.30;99.90;;;;;;4927729;29;20225;-82
2023/12/09 09:58:37;;;;;;;26.15;18.83;;;7.30;99.90;;;;;;4916397;29;20594;-77
2023/12/09 10:01:07;;;;;;;23.40;19.83;;;7.30;99.90;;;;;;4917752;29;20236;-83
2023/12/09 10:03:36;;;;;;;25.58;19.60;;;7.30;99.90;;;;;;4915027;29;20234;-83
2023/12/09 10:06:10;;;;;;;24.65;17.67;;;7.30;99.90;;;;;;4920223;29;20246;-83
2023/12/09 10:08:37;;;;;;;25.67;19.92;;;7.40;99.90;;;;;;4918947;29;20292;-77
2023/12/09 10:11:05;;;;;;;25.92;20.75;;;7.40;99.90;;;;;;4916732;29;20221;-83
2023/12/09 10:13:39;;;;;;;24.83;21.35;;;7.40;99.90;;;;;;4916604;29;20312;-82
2023/12/09 10:16:11;;;;;;;24.17;20.10;;;7.40;99.90;;;;;;4919739;29;20683;-84
2023/12/09 10:18:44;;;;;;;26.70;20.67;;;7.40;99.90;;;;;;4916775;29;20230;-77
2023/12/09 10:21:12;;;;;;;22.50;19.15;;;7.40;99.90;;;;;;4936434;29;20587;-81
2023/12/09 10:23:48;;;;;;;23.75;18.20;;;7.40;99.90;;;;;;4932590;29;20236;-83
2023/12/09 10:26:19;;;;;;;25.17;18.60;;;7.40;99.90;;;;;;4927301;29;20235;-76
2023/12/09 10:28:46;;;;;;;19.52;17.42;;;7.30;99.90;;;;;;4935392;29;20232;-83
2023/12/09 10:31:21;;;;;;;22.00;18.38;;;7.40;99.90;;;;;;4938823;29;20236;-84
2023/12/09 10:33:49;;;;;;;19.23;16.95;;;7.40;99.90;;;;;;4937390;29;20709;-83
2023/12/09 10:36:17;;;;;;;22.70;16.52;;;7.40;99.90;;;;;;4936561;29;20233;-83
2023/12/09 10:38:44;;;;;;;26.42;20.27;;;7.40;99.90;;;;;;4936307;29;20232;-77
2023/12/09 10:41:16;;;;;;;20.77;17.10;;;7.40;99.90;;;;;;4937271;29;20236;-76
2023/12/09 10:43:46;;;;;;;21.33;17.65;;;7.40;99.90;;;;;;4937203;29;20228;-77
2023/12/09 10:46:15;;;;;;;31.00;21.20;;;7.50;99.90;;;;;;4937385;29;20291;-77
2023/12/09 10:48:43;;;;;;;23.00;20.08;;;7.50;99.90;;;;;;4913545;29;20233;-77
2023/12/09 10:51:10;;;;;;;24.50;18.42;;;7.50;99.90;;;;;;4937059;29;20707;-84
2023/12/09 10:53:39;;;;;;;20.67;16.60;;;7.50;99.90;;;;;;4936303;29;20770;-77
2023/12/09 10:56:08;;;;;;;20.85;15.98;;;7.50;99.90;;;;;;4936746;29;20423;-76
2023/12/09 10:58:37;;;;;;;18.00;14.75;;;7.60;99.90;;;;;;4937205;29;20236;-77
2023/12/09 11:01:05;;;;;;;18.73;15.32;;;7.60;99.90;;;;;;4940983;29;20225;-76
2023/12/09 11:03:34;;;;;;;23.08;17.17;;;7.60;99.90;;;;;;4932623;29;20239;-76
2023/12/09 11:06:05;;;;;;;22.13;17.63;;;7.60;99.90;;;;;;4940295;29;20239;-76
2023/12/09 11:08:34;;;;;;;25.45;18.70;;;7.70;99.90;;;;;;4940256;29;20635;-77
2023/12/09 11:11:07;;;;;;;19.73;17.58;;;7.70;99.90;;;;;;4937986;29;20710;-76
2023/12/09 11:13:36;;;;;;;23.20;17.20;;;7.70;99.90;;;;;;4937418;29;20236;-83
2023/12/09 11:16:14;;;;;;;23.40;17.10;;;7.70;99.90;;;;;;4939875;29;20311;-77
2023/12/09 11:18:51;;;;;;;20.45;18.08;;;7.80;99.90;;;;;;4939067;29;20580;-76
2023/12/09 11:21:20;;;;;;;18.40;15.55;;;7.80;99.90;;;;;;4942350;29;20241;-77
2023/12/09 11:23:52;;;;;;;20.60;13.63;;;7.70;99.90;;;;;;4935233;29;20225;-75
2023/12/09 11:26:20;;;;;;;18.20;14.52;;;7.70;99.90;;;;;;4930347;29;20287;-76
2023/12/09 11:29:02;;;;;;;18.25;13.10;;;7.80;99.90;;;;;;4939108;29;20327;-82
2023/12/09 11:31:37;;;;;;;19.63;14.95;;;7.90;99.90;;;;;;4939960;29;20228;-82
2023/12/09 11:34:07;;;;;;;17.05;14.88;;;7.90;99.90;;;;;;4939729;29;20231;-76
2023/12/09 11:36:38;;;;;;;17.58;13.10;;;7.90;99.90;;;;;;4938614;29;20224;-83
2023/12/09 11:39:06;;;;;;;20.88;15.32;;;7.90;99.90;;;;;;4939350;29;20228;-83
2023/12/09 11:41:34;;;;;;;20.27;14.85;;;8.00;99.90;;;;;;4931906;29;20221;-83
2023/12/09 11:44:02;;;;;;;18.48;13.10;;;7.90;99.90;;;;;;4938988;29;20235;-83
2023/12/09 11:46:30;;;;;;;15.48;12.98;;;8.00;99.90;;;;;;4939799;29;20233;-83
2023/12/09 11:48:58;;;;;;;24.70;14.07;;;8.00;99.90;;;;;;4938750;29;20605;-76
2023/12/09 11:51:29;;;;;;;14.65;12.30;;;8.00;99.90;;;;;;4938648;29;20320;-76
2023/12/09 11:53:56;;;;;;;15.32;12.05;;;8.00;99.90;;;;;;4938346;29;20589;-76
2023/12/09 11:56:24;;;;;;;14.82;11.77;;;8.10;99.90;;;;;;4926742;29;20578;-75
2023/12/09 11:58:51;;;;;;;15.05;10.38;;;8.10;99.90;;;;;;4938396;29;20236;-76
2023/12/09 12:01:19;;;;;;;16.75;12.35;;;8.10;99.90;;;;;;4938789;29;20311;-76
2023/12/09 12:03:47;;;;;;;17.85;13.35;;;8.10;99.90;;;;;;4936754;29;20229;-77
2023/12/09 12:06:15;;;;;;;12.75;11.23;;;8.10;99.90;;;;;;4938474;29;20233;-77
2023/12/09 12:08:43;;;;;;;15.15;11.65;;;8.20;99.90;;;;;;4937802;29;20232;-83
2023/12/09 12:11:11;;;;;;;14.40;12.18;;;8.20;99.90;;;;;;4938114;29;20240;-84
2023/12/09 12:13:38;;;;;;;15.27;10.38;;;8.20;99.90;;;;;;4937135;29;20240;-83
2023/12/09 12:16:07;;;;;;;10.55;9.40;;;8.30;99.90;;;;;;4938663;29;20277;-84
2023/12/09 12:18:37;;;;;;;13.20;9.90;;;8.30;99.90;;;;;;4938754;29;20250;-84
2023/12/09 12:21:05;;;;;;;11.27;9.60;;;8.30;99.90;;;;;;4938204;29;20228;-77
2023/12/09 12:23:32;;;;;;;17.20;10.65;;;8.40;99.90;;;;;;4950077;29;20255;-76
2023/12/09 12:26:01;;;;;;;13.07;10.68;;;8.40;99.90;;;;;;4954854;29;20594;-77
2023/12/09 12:28:28;;;;;;;14.15;10.80;;;8.50;99.90;;;;;;4938040;29;20237;-77
2023/12/09 12:30:56;;;;;;;10.38;9.23;;;8.50;99.90;;;;;;4937660;29;20560;-76
2023/12/09 12:33:25;;;;;;;10.77;9.05;;;8.50;99.90;;;;;;4937512;29;20232;-83
2023/12/09 12:35:52;;;;;;;12.20;10.27;;;8.50;99.90;;;;;;4937033;29;20228;-83
2023/12/09 12:38:20;;;;;;;15.23;10.98;;;8.60;99.90;;;;;;4937861;29;20264;-76
2023/12/09 12:40:47;;;;;;;15.40;10.35;;;8.60;99.90;;;;;;4942743;28;20657;-76
2023/12/09 12:43:16;;;;;;;14.93;11.20;;;8.50;99.90;;;;;;4956932;29;20690;-76
2023/12/09 12:45:46;;;;;;;13.18;11.63;;;8.60;99.90;;;;;;4946721;29;20312;-77